createdAt,value
2022-08-03T00:03:55.000Z,83.67
2022-08-03T00:06:22.000Z,85.55
2022-08-03T00:08:47.000Z,84.32
2022-08-03T00:11:13.000Z,86.42
2022-08-03T00:13:39.000Z,84.95
2022-08-03T00:16:06.000Z,84
2022-08-03T00:18:31.000Z,85.23
2022-08-03T00:20:57.000Z,86.93
2022-08-03T00:23:24.000Z,84.62
2022-08-03T00:25:50.000Z,84.62
2022-08-03T00:25:56.000Z,89.32
2022-08-03T00:28:17.000Z,89.17
2022-08-03T00:30:44.000Z,90.28
2022-08-03T00:33:10.000Z,92.37
2022-08-03T00:35:36.000Z,92.42
2022-08-03T00:38:02.000Z,92.42
2022-08-03T00:38:09.000Z,92.72
2022-08-03T00:40:28.000Z,94.1
2022-08-03T00:42:54.000Z,94.3
2022-08-03T00:45:21.000Z,93.85
2022-08-03T00:47:47.000Z,96.22
2022-08-03T00:50:14.000Z,94.32
2022-08-03T00:52:40.000Z,93.6
2022-08-03T00:55:07.000Z,91.85
2022-08-03T00:57:33.000Z,95.12
2022-08-03T00:59:59.000Z,91
2022-08-03T01:02:25.000Z,98.2
2022-08-03T01:07:19.000Z,102.47
2022-08-03T01:09:44.000Z,106.37
2022-08-03T01:12:10.000Z,106.78
2022-08-03T01:14:37.000Z,109.07
2022-08-03T01:17:04.000Z,112.3
2022-08-03T01:19:30.000Z,108.2
2022-08-03T01:21:56.000Z,110.95
2022-08-03T01:24:22.000Z,113.62
2022-08-03T01:26:50.000Z,112.77
2022-08-03T01:29:15.000Z,111.3
2022-08-03T01:31:42.000Z,113.88
2022-08-03T01:34:08.000Z,113.88
2022-08-03T01:34:19.000Z,116
2022-08-03T01:36:34.000Z,114.75
2022-08-03T01:39:01.000Z,116.25
2022-08-03T01:41:28.000Z,119.63
2022-08-03T01:43:57.000Z,109.8
2022-08-03T01:46:19.000Z,109.8
2022-08-03T01:46:24.000Z,111.28
2022-08-03T01:48:46.000Z,113.68
2022-08-03T01:51:13.000Z,104.87
2022-08-03T01:53:39.000Z,115.7
2022-08-03T01:58:32.000Z,119.25
2022-08-03T02:00:59.000Z,119.37
2022-08-03T02:03:25.000Z,114.67
2022-08-03T02:05:52.000Z,108.87
2022-08-03T02:08:18.000Z,108.87
2022-08-03T02:08:24.000Z,116.15
2022-08-03T02:10:44.000Z,118.9
2022-08-03T02:13:11.000Z,109.1
2022-08-03T02:15:37.000Z,113
2022-08-03T02:18:04.000Z,109.35
2022-08-03T02:20:30.000Z,112.03
2022-08-03T02:22:57.000Z,114
2022-08-03T02:25:24.000Z,100.38
2022-08-03T02:27:49.000Z,110.7
2022-08-03T02:30:16.000Z,99.6
2022-08-03T02:32:43.000Z,103.45
2022-08-03T02:35:09.000Z,111.68
2022-08-03T02:37:36.000Z,111.88
2022-08-03T02:40:02.000Z,111.88
2022-08-03T02:40:08.000Z,101.05
2022-08-03T02:42:27.000Z,104
2022-08-03T02:44:53.000Z,111.3
2022-08-03T02:47:19.000Z,106.75
2022-08-03T02:49:45.000Z,107.93
2022-08-03T02:52:11.000Z,107.93
2022-08-03T02:52:20.000Z,110.37
2022-08-03T02:54:37.000Z,108.47
2022-08-03T02:57:04.000Z,112.3
2022-08-03T02:59:30.000Z,106.95
2022-08-03T03:01:56.000Z,105.1
2022-08-03T03:04:21.000Z,109
2022-08-03T03:06:48.000Z,109
2022-08-03T03:06:56.000Z,111.67
2022-08-03T03:09:15.000Z,111.32
2022-08-03T03:11:41.000Z,111
2022-08-03T03:14:13.000Z,110.22
2022-08-03T03:16:33.000Z,110.22
2022-08-03T03:16:41.000Z,105.97
2022-08-03T03:18:59.000Z,105.97
2022-08-03T03:19:07.000Z,110.37
2022-08-03T03:21:26.000Z,106.33
2022-08-03T03:23:51.000Z,106.07
2022-08-03T03:28:42.000Z,109.07
2022-08-03T03:31:09.000Z,101.65
2022-08-03T03:33:35.000Z,105.5
2022-08-03T03:36:00.000Z,104.67
2022-08-03T03:38:27.000Z,105.27
2022-08-03T03:40:52.000Z,103.42
2022-08-03T03:43:18.000Z,99.7
2022-08-03T03:45:46.000Z,102.1
2022-08-03T03:48:12.000Z,100.67
2022-08-03T03:50:38.000Z,102.8
2022-08-03T03:53:04.000Z,103.03
2022-08-03T03:55:30.000Z,103.03
2022-08-03T03:57:56.000Z,103.03
2022-08-03T03:58:02.000Z,96.82
2022-08-03T03:58:12.000Z,99.83
2022-08-03T04:00:28.000Z,101.2
2022-08-03T04:02:49.000Z,100.15
2022-08-03T04:05:17.000Z,99.87
2022-08-03T04:07:43.000Z,99.75
2022-08-03T04:10:09.000Z,98.97
2022-08-03T04:12:34.000Z,97.1
2022-08-03T04:15:01.000Z,97.1
2022-08-03T04:15:11.000Z,95.6
2022-08-03T04:17:29.000Z,92.37
2022-08-03T04:19:54.000Z,91.35
2022-08-03T04:22:20.000Z,93.07
2022-08-03T04:24:46.000Z,93.05
2022-08-03T04:27:12.000Z,90.8
2022-08-03T04:29:37.000Z,91.5
2022-08-03T04:32:03.000Z,91.5
2022-08-03T04:32:12.000Z,90.55
2022-08-03T04:34:29.000Z,89.83
2022-08-03T04:36:55.000Z,82.25
2022-08-03T04:39:22.000Z,88.62
2022-08-03T04:41:47.000Z,95.3
2022-08-03T04:44:13.000Z,95.3
2022-08-03T04:44:20.000Z,94.83
2022-08-03T04:46:37.000Z,94.83
2022-08-03T04:49:03.000Z,94.83
2022-08-03T04:49:12.000Z,95.22
2022-08-03T04:49:19.000Z,99.73
2022-08-03T04:51:29.000Z,94.3
2022-08-03T04:53:56.000Z,93.8
2022-08-03T04:56:21.000Z,99.47
2022-08-03T04:58:47.000Z,108.93
2022-08-03T05:01:13.000Z,101.35
2022-08-03T05:03:38.000Z,100.12
2022-08-03T05:06:05.000Z,112.05
2022-08-03T05:08:31.000Z,112.05
2022-08-03T05:10:59.000Z,112.05
2022-08-03T05:11:06.000Z,103.87
2022-08-03T05:11:12.000Z,100.07
2022-08-03T05:13:26.000Z,106.95
2022-08-03T05:15:53.000Z,111.17
2022-08-03T05:18:18.000Z,109.22
2022-08-03T05:20:44.000Z,108.95
2022-08-03T05:23:10.000Z,104.58
2022-08-03T05:25:36.000Z,107.58
2022-08-03T05:28:03.000Z,107.58
2022-08-03T05:28:11.000Z,106.78
2022-08-03T05:30:29.000Z,105.25
2022-08-03T05:32:55.000Z,105.25
2022-08-03T05:33:01.000Z,103.57
2022-08-03T05:35:22.000Z,103.85
2022-08-03T05:37:49.000Z,103.85
2022-08-03T05:37:59.000Z,99.8
2022-08-03T05:40:19.000Z,99.8
2022-08-03T05:40:27.000Z,99.65
2022-08-03T05:42:43.000Z,98.8
2022-08-03T05:45:09.000Z,97.72
2022-08-03T05:47:36.000Z,100.2
2022-08-03T05:50:02.000Z,100.07
2022-08-03T05:52:29.000Z,98.12
2022-08-03T05:54:55.000Z,99.13
2022-08-03T05:57:22.000Z,98.6
2022-08-03T05:59:47.000Z,94.17
2022-08-03T06:02:16.000Z,94.17
2022-08-03T06:02:22.000Z,94.97
2022-08-03T06:04:41.000Z,93.87
2022-08-03T06:07:07.000Z,96.8
2022-08-03T06:09:34.000Z,95.23
2022-08-03T06:12:02.000Z,95.23
2022-08-03T06:14:27.000Z,95.23
2022-08-03T06:14:36.000Z,96.42
2022-08-03T06:14:44.000Z,92.23
2022-08-03T06:16:54.000Z,88.42
2022-08-03T06:19:22.000Z,93.33
2022-08-03T06:21:46.000Z,89.9
2022-08-03T06:24:13.000Z,80.12
2022-08-03T06:26:46.000Z,80.12
2022-08-03T06:26:55.000Z,81.2
2022-08-03T06:29:05.000Z,87.5
2022-08-03T06:31:32.000Z,85.27
2022-08-03T06:33:58.000Z,73.42
2022-08-03T06:36:25.000Z,73.42
2022-08-03T06:36:33.000Z,69.27
2022-08-03T06:38:52.000Z,75.33
2022-08-03T07:12:54.000Z,53.13
2022-08-03T07:13:02.000Z,51
2022-08-03T07:14:27.000Z,55.1
2022-08-03T07:16:17.000Z,57.43
2022-08-03T07:18:44.000Z,59.45
2022-08-03T07:21:10.000Z,51
2022-08-03T07:23:35.000Z,52.7
2022-08-03T07:26:01.000Z,53.3
2022-08-03T07:28:28.000Z,55.8
2022-08-03T07:30:54.000Z,58.17
2022-08-03T07:33:20.000Z,54.35
2022-08-03T07:35:46.000Z,55.67
2022-08-03T07:38:13.000Z,54.65
2022-08-03T07:40:38.000Z,53.3
2022-08-03T07:43:05.000Z,53.3
2022-08-03T07:43:11.000Z,54.25
2022-08-03T07:45:31.000Z,55.55
2022-08-03T07:47:58.000Z,53.8
2022-08-03T07:50:29.000Z,55.73
2022-08-03T07:52:49.000Z,54.75
2022-08-03T07:57:44.000Z,54.9
2022-08-03T08:00:12.000Z,53.95
2022-08-03T08:02:35.000Z,53.58
2022-08-03T08:05:02.000Z,53.92
2022-08-03T08:07:28.000Z,53.85
2022-08-03T08:09:54.000Z,53.42
2022-08-03T08:12:21.000Z,52.38
2022-08-03T08:14:47.000Z,53.7
2022-08-03T08:17:14.000Z,50.48
2022-08-03T08:19:39.000Z,50.38
2022-08-03T08:22:06.000Z,50.38
2022-08-03T08:22:12.000Z,50.37
2022-08-03T08:24:32.000Z,50.37
2022-08-03T08:24:40.000Z,49.33
2022-08-03T08:26:57.000Z,46.92
2022-08-03T08:29:25.000Z,47.6
2022-08-03T08:31:49.000Z,46.6
2022-08-03T08:34:14.000Z,46.02
2022-08-03T08:36:41.000Z,46.35
2022-08-03T08:39:08.000Z,45.87
2022-08-03T08:41:33.000Z,45.87
2022-08-03T08:43:59.000Z,45.87
2022-08-03T08:44:05.000Z,47.43
2022-08-03T08:44:10.000Z,45.9
2022-08-03T08:46:25.000Z,48
2022-08-03T08:48:52.000Z,47.9
2022-08-03T08:51:17.000Z,46.23
2022-08-03T08:53:43.000Z,47.2
2022-08-03T08:56:10.000Z,48.17
2022-08-03T08:58:37.000Z,48.17
2022-08-03T08:58:43.000Z,47.05
2022-08-03T09:01:02.000Z,47.9
2022-08-03T09:03:28.000Z,48.68
2022-08-03T09:05:54.000Z,47
2022-08-03T09:08:19.000Z,47.07
2022-08-03T09:13:11.000Z,48.8
2022-08-03T09:15:36.000Z,46.6
2022-08-03T09:18:03.000Z,46.6
2022-08-03T09:18:09.000Z,45.83
2022-08-03T09:20:28.000Z,47.17
2022-08-03T09:22:55.000Z,46.3
2022-08-03T09:25:21.000Z,46.3
2022-08-03T09:25:30.000Z,45.83
2022-08-03T09:27:47.000Z,46.7
2022-08-03T09:30:15.000Z,45.58
2022-08-03T09:32:40.000Z,45.58
2022-08-03T09:32:46.000Z,46.28
2022-08-03T09:35:05.000Z,43.63
2022-08-03T09:37:32.000Z,43.05
2022-08-03T09:39:58.000Z,43.05
2022-08-03T09:40:07.000Z,45.1
2022-08-03T09:42:23.000Z,42.33
2022-08-03T09:44:49.000Z,44.4
2022-08-03T09:47:15.000Z,41.55
2022-08-03T09:49:40.000Z,41.55
2022-08-03T09:49:47.000Z,41.98
2022-08-03T09:52:07.000Z,39.2
2022-08-03T09:54:33.000Z,39.2
2022-08-03T09:54:42.000Z,40.23
2022-08-03T09:56:59.000Z,38.8
2022-08-03T09:59:24.000Z,42.08
2022-08-03T10:01:51.000Z,41.9
2022-08-03T10:04:34.000Z,42.13
2022-08-03T10:06:41.000Z,42.13
2022-08-03T10:06:47.000Z,40.63
2022-08-03T10:09:06.000Z,40.9
2022-08-03T10:11:33.000Z,41.33
2022-08-03T10:13:58.000Z,41.33
2022-08-03T10:14:06.000Z,40.03
2022-08-03T10:16:24.000Z,38.3
2022-08-03T10:18:49.000Z,38.1
2022-08-03T10:21:15.000Z,38
2022-08-03T10:23:41.000Z,37.4
2022-08-03T10:26:08.000Z,38.33
2022-08-03T10:28:33.000Z,37.85
2022-08-03T10:30:58.000Z,37.85
2022-08-03T10:31:04.000Z,37
2022-08-03T10:33:25.000Z,39.27
2022-08-03T10:35:51.000Z,39.27
2022-08-03T10:35:57.000Z,38.7
2022-08-03T10:38:17.000Z,35.67
2022-08-03T10:40:43.000Z,37.7
2022-08-03T10:43:09.000Z,37.7
2022-08-03T10:43:16.000Z,36.03
2022-08-03T10:45:34.000Z,35.13
2022-08-03T10:48:00.000Z,33.28
2022-08-03T10:50:26.000Z,35.13
2022-08-03T10:55:17.000Z,36.48
2022-08-03T10:57:43.000Z,32.37
2022-08-03T11:00:14.000Z,33.55
2022-08-03T11:02:35.000Z,35.97
2022-08-03T11:07:27.000Z,34.8
2022-08-03T11:07:33.000Z,32.13
2022-08-03T11:09:53.000Z,33.1
2022-08-03T11:12:18.000Z,30.77
2022-08-03T11:14:44.000Z,30.77
2022-08-03T11:14:51.000Z,32.7
2022-08-03T11:17:11.000Z,31.9
2022-08-03T11:19:37.000Z,31.9
2022-08-03T11:22:02.000Z,31.9
2022-08-03T11:22:09.000Z,30
2022-08-03T11:22:17.000Z,30.67
2022-08-03T11:24:27.000Z,28.67
2022-08-03T11:26:53.000Z,30.85
2022-08-03T11:29:19.000Z,30.55
2022-08-03T11:31:45.000Z,31.83
2022-08-03T11:34:10.000Z,31.83
2022-08-03T11:34:17.000Z,32.2
2022-08-03T11:36:36.000Z,32.65
2022-08-03T11:39:08.000Z,31.2
2022-08-03T11:41:28.000Z,31.25
2022-08-03T11:43:53.000Z,31.25
2022-08-03T11:44:01.000Z,30.48
2022-08-03T11:46:19.000Z,30.43
2022-08-03T11:48:45.000Z,30.43
2022-08-03T11:48:50.000Z,30.03
2022-08-03T11:51:11.000Z,29.48
2022-08-03T11:53:36.000Z,29.32
2022-08-03T11:56:02.000Z,30.1
2022-08-03T11:58:28.000Z,30.1
2022-08-03T12:00:54.000Z,30.1
2022-08-03T12:01:00.000Z,30.37
2022-08-03T12:01:06.000Z,30.83
2022-08-03T12:03:20.000Z,29.97
2022-08-03T12:05:45.000Z,30.25
2022-08-03T12:08:12.000Z,30.25
2022-08-03T12:08:18.000Z,30
2022-08-03T12:10:37.000Z,30.6
2022-08-03T12:13:04.000Z,30.27
2022-08-03T12:15:30.000Z,30.27
2022-08-03T12:15:37.000Z,29.42
2022-08-03T12:17:55.000Z,29.82
2022-08-03T12:20:21.000Z,29.23
2022-08-03T12:22:47.000Z,29.23
2022-08-03T12:22:53.000Z,29.9
2022-08-03T12:25:12.000Z,30.1
2022-08-03T12:27:38.000Z,30.1
2022-08-03T12:27:46.000Z,30.57
2022-08-03T12:30:05.000Z,29.4
2022-08-03T12:32:29.000Z,29.57
2022-08-03T12:34:56.000Z,30.05
2022-08-03T12:37:21.000Z,30.4
2022-08-03T12:39:46.000Z,29
2022-08-03T12:42:13.000Z,29
2022-08-03T12:42:21.000Z,29
2022-08-03T12:44:38.000Z,29.8
2022-08-03T12:47:05.000Z,30.08
2022-08-03T12:49:30.000Z,30.73
2022-08-03T12:51:56.000Z,30.8
2022-08-03T12:54:21.000Z,30.8
2022-08-03T12:54:30.000Z,31.77
2022-08-03T12:56:48.000Z,33.05
2022-08-03T12:59:14.000Z,34.75
2022-08-03T13:01:40.000Z,35.3
2022-08-03T13:04:06.000Z,35.3
2022-08-03T13:06:31.000Z,35.3
2022-08-03T13:06:37.000Z,36.25
2022-08-03T13:06:42.000Z,36.05
2022-08-03T13:08:58.000Z,36.05
2022-08-03T13:09:04.000Z,35.35
2022-08-03T13:11:23.000Z,36.17
2022-08-03T13:13:50.000Z,36.17
2022-08-03T13:13:56.000Z,36.73
2022-08-03T13:16:16.000Z,36.57
2022-08-03T13:18:43.000Z,37.63
2022-08-03T13:21:08.000Z,35.83
2022-08-03T13:23:33.000Z,37.2
2022-08-03T13:25:58.000Z,36.8
2022-08-03T13:28:24.000Z,37.83
2022-08-03T13:30:51.000Z,38.78
2022-08-03T13:33:16.000Z,40.07
2022-08-03T13:35:43.000Z,39.97
2022-08-03T13:38:09.000Z,38.65
2022-08-03T13:40:35.000Z,38.13
2022-08-03T13:43:01.000Z,38.13
2022-08-03T13:43:07.000Z,38.95
2022-08-03T13:45:27.000Z,38.83
2022-08-03T13:47:52.000Z,38.93
2022-08-03T13:50:18.000Z,39.6
2022-08-03T13:52:45.000Z,41
2022-08-03T13:55:12.000Z,38.98
2022-08-03T13:57:37.000Z,42.47
2022-08-03T14:02:28.000Z,43.38
2022-08-03T14:04:55.000Z,41.58
2022-08-03T14:07:21.000Z,44.63
2022-08-03T14:09:48.000Z,46.03
2022-08-03T14:12:12.000Z,44.98
2022-08-03T14:14:39.000Z,42.85
2022-08-03T14:17:05.000Z,45.9
2022-08-03T14:19:33.000Z,46.25
2022-08-03T14:21:59.000Z,46.25
2022-08-03T14:24:26.000Z,46.25
2022-08-03T14:24:33.000Z,47.33
2022-08-03T14:24:39.000Z,44.9
2022-08-03T14:26:51.000Z,46.77
2022-08-03T14:29:17.000Z,46.77
2022-08-03T14:29:24.000Z,47.43
2022-08-03T14:31:46.000Z,44.93
2022-08-03T14:34:14.000Z,44.93
2022-08-03T14:34:20.000Z,47.8
2022-08-03T14:36:39.000Z,47.73
2022-08-03T14:39:06.000Z,46.95
2022-08-03T14:41:31.000Z,47.98
2022-08-03T14:43:57.000Z,47.4
2022-08-03T14:46:22.000Z,47.4
2022-08-03T14:46:29.000Z,47.73
2022-08-03T14:48:48.000Z,48.1
2022-08-03T14:51:14.000Z,48.1
2022-08-03T14:51:22.000Z,47.1
2022-08-03T14:53:41.000Z,45.4
2022-08-03T14:56:07.000Z,46.3
2022-08-03T14:58:32.000Z,46.9
2022-08-03T15:00:58.000Z,46.5
2022-08-03T15:03:24.000Z,46.5
2022-08-03T15:03:31.000Z,46.45
2022-08-03T15:05:50.000Z,48.02
2022-08-03T15:08:16.000Z,44.03
2022-08-03T15:10:42.000Z,48.23
2022-08-03T15:13:07.000Z,48.3
2022-08-03T15:15:34.000Z,48.63
2022-08-03T15:17:59.000Z,45
2022-08-03T15:20:25.000Z,46.2
2022-08-03T15:22:50.000Z,46.2
2022-08-03T15:22:58.000Z,50.6
2022-08-03T15:25:16.000Z,48.6
2022-08-03T15:27:42.000Z,48.6
2022-08-03T15:30:09.000Z,48.6
2022-08-03T15:30:16.000Z,49.57
2022-08-03T15:30:22.000Z,50.95
2022-08-03T15:32:32.000Z,51
2022-08-03T15:34:59.000Z,50.17
2022-08-03T15:37:25.000Z,49.55
2022-08-03T15:39:51.000Z,49.48
2022-08-03T15:42:17.000Z,49.48
2022-08-03T15:42:27.000Z,49.23
2022-08-03T15:44:40.000Z,47.93
2022-08-03T15:47:14.000Z,49.42
2022-08-03T15:49:34.000Z,49.38
2022-08-03T15:54:26.000Z,51.58
2022-08-03T15:56:52.000Z,48.17
2022-08-03T15:59:17.000Z,48.73
2022-08-03T16:01:42.000Z,49.2
2022-08-03T16:04:08.000Z,47.43
2022-08-03T16:06:33.000Z,48.15
2022-08-03T16:08:59.000Z,48.6
2022-08-03T16:11:26.000Z,48.17
2022-08-03T16:13:51.000Z,47.1
2022-08-03T16:16:17.000Z,47.1
2022-08-03T16:16:24.000Z,50
2022-08-03T16:18:44.000Z,49.98
2022-08-03T16:21:08.000Z,49.1
2022-08-03T16:23:34.000Z,49.1
2022-08-03T16:26:02.000Z,49.1
2022-08-03T16:26:12.000Z,51.6
2022-08-03T16:26:19.000Z,50.58
2022-08-03T16:28:27.000Z,50.58
2022-08-03T16:28:33.000Z,51.73
2022-08-03T16:30:54.000Z,53.08
2022-08-03T16:33:19.000Z,50.92
2022-08-03T16:35:45.000Z,52.9
2022-08-03T16:38:12.000Z,50.73
2022-08-03T16:40:39.000Z,50.73
2022-08-03T16:40:44.000Z,49.37
2022-08-03T16:43:07.000Z,49.73
2022-08-03T16:45:32.000Z,49.73
2022-08-03T16:45:41.000Z,48.87
2022-08-03T16:47:58.000Z,50.63
2022-08-03T16:50:37.000Z,50.63
2022-08-03T16:50:44.000Z,52.78
2022-08-03T16:52:50.000Z,50.7
2022-08-03T16:55:16.000Z,48.92
2022-08-03T16:57:46.000Z,48.92
2022-08-03T17:00:26.000Z,51.53
2022-08-03T17:00:26.000Z,51.53
2022-08-03T17:00:39.000Z,50.1
2022-08-03T17:02:35.000Z,51.28
2022-08-03T17:05:02.000Z,50.5
2022-08-03T17:09:58.000Z,51.63
2022-08-03T17:12:21.000Z,52.98
2022-08-03T17:14:47.000Z,52.98
2022-08-03T17:14:54.000Z,52.48
2022-08-03T17:17:13.000Z,53.75
2022-08-03T17:19:41.000Z,53.8
2022-08-03T17:22:05.000Z,53.8
2022-08-03T17:22:12.000Z,52.85
2022-08-03T17:24:31.000Z,52.85
2022-08-03T17:26:57.000Z,52.85
2022-08-03T17:27:04.000Z,52.25
2022-08-03T17:29:23.000Z,52.25
2022-08-03T17:31:50.000Z,52.25
2022-08-03T17:31:58.000Z,52.25
2022-08-03T17:34:16.000Z,52.25
2022-08-03T17:36:55.000Z,52.3
2022-08-03T17:36:55.000Z,52.3
2022-08-03T17:37:08.000Z,50.33
2022-08-03T17:37:25.000Z,51.13
2022-08-03T17:37:25.000Z,51.13
2022-08-03T17:39:10.000Z,50.1
2022-08-03T17:41:36.000Z,50.48
2022-08-03T17:44:02.000Z,51.6
2022-08-03T17:46:29.000Z,51.35
2022-08-03T17:48:55.000Z,50.48
2022-08-03T17:51:22.000Z,50.48
2022-08-03T17:51:31.000Z,48.28
2022-08-03T17:53:47.000Z,48.28
2022-08-03T17:53:53.000Z,49.53
2022-08-03T17:56:28.000Z,49.03
2022-08-03T17:58:40.000Z,49.03
2022-08-03T18:01:06.000Z,46.25
2022-08-03T18:01:06.000Z,49.03
2022-08-03T18:01:06.000Z,49.03
2022-08-03T18:03:32.000Z,45.05
2022-08-03T18:05:59.000Z,43.42
2022-08-03T18:08:26.000Z,43.9
2022-08-03T18:10:52.000Z,45.03
2022-08-03T18:13:28.000Z,45.03
2022-08-03T18:15:45.000Z,45.03
2022-08-03T18:15:53.000Z,44.33
2022-08-03T18:16:00.000Z,45.33
2022-08-03T18:18:12.000Z,45.6
2022-08-03T18:20:36.000Z,45.6
2022-08-03T18:23:03.000Z,45.6
2022-08-03T18:23:15.000Z,45.5
2022-08-03T18:23:29.000Z,46.6
2022-08-03T18:25:30.000Z,46.6
2022-08-03T18:27:55.000Z,44.5
2022-08-03T18:30:24.000Z,44.47
2022-08-03T18:32:48.000Z,44.03
2022-08-03T18:35:14.000Z,44.03
2022-08-03T18:37:40.000Z,44.03
2022-08-03T18:37:50.000Z,43.55
2022-08-03T18:38:01.000Z,44.2
2022-08-03T18:40:09.000Z,42.05
2022-08-03T18:42:34.000Z,42.73
2022-08-03T18:44:59.000Z,42.73
2022-08-03T18:47:27.000Z,42.25
2022-08-03T18:49:53.000Z,42.55
2022-08-03T18:52:18.000Z,43.2
2022-08-03T18:54:45.000Z,43.2
2022-08-03T18:57:13.000Z,43.2
2022-08-03T18:57:33.000Z,43.6
2022-08-03T18:57:33.000Z,43.6
2022-08-03T18:59:38.000Z,44.8
2022-08-03T19:02:04.000Z,43.8
2022-08-03T19:04:31.000Z,44.18
2022-08-03T19:06:56.000Z,44.18
2022-08-03T19:07:03.000Z,43.5
2022-08-03T19:09:23.000Z,43.75
2022-08-03T19:11:49.000Z,43.75
2022-08-03T19:14:16.000Z,43.75
2022-08-03T19:14:25.000Z,43.13
2022-08-03T19:14:36.000Z,41.3
2022-08-03T19:16:51.000Z,42.25
2022-08-03T19:19:08.000Z,42.25
2022-08-03T19:19:16.000Z,41.88
2022-08-03T19:21:33.000Z,42.3
2022-08-03T19:23:59.000Z,41.2
2022-08-03T19:26:26.000Z,41.2
2022-08-03T19:28:52.000Z,41.2
2022-08-03T19:29:01.000Z,41
2022-08-03T19:31:18.000Z,41
2022-08-03T19:33:44.000Z,41
2022-08-03T19:33:54.000Z,42.27
2022-08-03T19:34:05.000Z,40.88
2022-08-03T19:34:13.000Z,41.6
2022-08-03T19:36:10.000Z,41.6
2022-08-03T19:38:35.000Z,41.6
2022-08-03T19:38:43.000Z,41.27
2022-08-03T19:38:51.000Z,40.67
2022-08-03T19:41:02.000Z,41.25
2022-08-03T19:43:30.000Z,41.25
2022-08-03T19:46:06.000Z,40.58
2022-08-03T19:46:06.000Z,40.58
2022-08-03T19:46:16.000Z,38.83
2022-08-03T19:48:22.000Z,39.38
2022-08-03T19:50:48.000Z,40.03
2022-08-03T19:53:14.000Z,39.35
2022-08-03T19:55:41.000Z,39.88
2022-08-03T19:58:07.000Z,39.88
2022-08-03T20:00:32.000Z,39.88
2022-08-03T20:00:43.000Z,40.33
2022-08-03T20:00:53.000Z,40.17
2022-08-03T20:02:59.000Z,39.33
2022-08-03T20:05:25.000Z,39.58
2022-08-03T20:07:52.000Z,38.55
2022-08-03T20:10:19.000Z,39.4
2022-08-03T20:12:45.000Z,39.03
2022-08-03T20:15:11.000Z,38.55
2022-08-03T20:17:37.000Z,38.55
2022-08-03T20:20:04.000Z,38.55
2022-08-03T20:20:13.000Z,37.87
2022-08-03T20:20:19.000Z,37.15
2022-08-03T20:22:29.000Z,37.95
2022-08-03T20:24:55.000Z,37.95
2022-08-03T20:25:03.000Z,36.58
2022-08-03T20:27:21.000Z,36.23
2022-08-03T20:29:48.000Z,36.23
2022-08-03T20:32:14.000Z,36.23
2022-08-03T20:32:25.000Z,35.4
2022-08-03T20:32:35.000Z,35.1
2022-08-03T20:34:40.000Z,34.07
2022-08-03T20:37:06.000Z,33.25
2022-08-03T20:39:33.000Z,33.33
2022-08-03T20:41:58.000Z,33.33
2022-08-03T20:42:05.000Z,33.53
2022-08-03T20:44:28.000Z,31.23
2022-08-03T20:46:50.000Z,31.23
2022-08-03T20:49:16.000Z,31.23
2022-08-03T20:49:24.000Z,30.52
2022-08-03T20:51:42.000Z,30.52
2022-08-03T20:54:08.000Z,30.52
2022-08-03T20:54:18.000Z,28.7
2022-08-03T20:54:29.000Z,30.2
2022-08-03T20:54:39.000Z,30.75
2022-08-03T20:56:35.000Z,30.17
2022-08-03T20:59:00.000Z,30.17
2022-08-03T21:01:27.000Z,30.17
2022-08-03T21:01:41.000Z,29.15
2022-08-03T21:01:48.000Z,28.15
2022-08-03T21:03:53.000Z,28.02
2022-08-03T21:06:18.000Z,28.02
2022-08-03T21:08:48.000Z,28.02
2022-08-03T21:08:55.000Z,28
2022-08-03T21:09:05.000Z,27.47
2022-08-03T21:11:10.000Z,28.02
2022-08-03T21:13:35.000Z,27.42
2022-08-03T21:16:01.000Z,27.43
2022-08-03T21:18:27.000Z,27.43
2022-08-03T21:18:34.000Z,26.87
2022-08-03T21:20:52.000Z,27.73
2022-08-03T21:23:19.000Z,27.27
2022-08-03T21:25:45.000Z,27.27
2022-08-03T21:25:52.000Z,27.47
2022-08-03T21:28:12.000Z,27.65
2022-08-03T21:30:37.000Z,27.65
2022-08-03T21:30:44.000Z,28.63
2022-08-03T21:33:03.000Z,30.17
2022-08-03T21:35:27.000Z,30.82
2022-08-03T21:37:54.000Z,30.43
2022-08-03T21:40:22.000Z,31.02
2022-08-03T21:42:47.000Z,31.27
2022-08-03T21:45:14.000Z,31.25
2022-08-03T21:47:39.000Z,33.38
2022-08-03T21:50:06.000Z,31.73
2022-08-03T21:52:32.000Z,31.42
2022-08-03T21:55:00.000Z,28.55
2022-08-03T21:57:24.000Z,29.6
2022-08-03T21:59:50.000Z,28.2
2022-08-03T22:02:16.000Z,28.47
2022-08-03T22:04:42.000Z,28.47
2022-08-03T22:07:08.000Z,28.47
2022-08-03T22:07:15.000Z,27.17
2022-08-03T22:07:22.000Z,27.45
2022-08-03T22:09:34.000Z,26.45
2022-08-03T22:12:00.000Z,26.65
2022-08-03T22:14:26.000Z,25.75
2022-08-03T22:16:51.000Z,25.33
2022-08-03T22:19:17.000Z,25.27
2022-08-03T22:21:43.000Z,25.63
2022-08-03T22:24:10.000Z,25.43
2022-08-03T22:29:01.000Z,24.67
2022-08-03T22:31:26.000Z,25.07
2022-08-03T22:33:53.000Z,25.07
2022-08-03T22:34:00.000Z,25.8
2022-08-03T22:36:19.000Z,25.5
2022-08-03T22:38:43.000Z,28.2
2022-08-03T22:41:11.000Z,29.57
2022-08-03T22:43:35.000Z,31.35
2022-08-03T22:46:01.000Z,32.87
2022-08-03T22:48:26.000Z,32.87
2022-08-03T22:48:35.000Z,34.93
2022-08-03T22:50:53.000Z,34.75
2022-08-03T22:53:19.000Z,36.35
2022-08-03T22:55:44.000Z,38.33
2022-08-03T22:58:10.000Z,38.48
2022-08-03T23:00:35.000Z,37.4
2022-08-03T23:03:03.000Z,40.13
2022-08-03T23:05:28.000Z,41.5
2022-08-03T23:07:54.000Z,41.5
2022-08-03T23:08:01.000Z,42.25
2022-08-03T23:10:19.000Z,43.08
2022-08-03T23:12:47.000Z,42.05
2022-08-03T23:15:12.000Z,41.48
2022-08-03T23:17:36.000Z,42.1
2022-08-03T23:20:04.000Z,42.1
2022-08-03T23:20:14.000Z,42.27
2022-08-03T23:22:28.000Z,41.98
2022-08-03T23:24:54.000Z,40.6
2022-08-03T23:27:20.000Z,40.85
2022-08-03T23:29:45.000Z,41.93
2022-08-03T23:32:11.000Z,41.77
2022-08-03T23:34:37.000Z,43.1
2022-08-03T23:37:03.000Z,42.2
2022-08-03T23:39:29.000Z,42
2022-08-03T23:41:54.000Z,42
2022-08-03T23:42:01.000Z,40.08
2022-08-03T23:44:20.000Z,41.17
2022-08-03T23:46:46.000Z,41.73
2022-08-03T23:49:12.000Z,41.18
2022-08-03T23:51:37.000Z,40.73
2022-08-03T23:56:29.000Z,45.55
2022-08-03T23:58:55.000Z,43.98
